Nearby METAR Reports

 

KSJC - San Jose, California, USA
Distance from station: NE 14km
Updated: 20/07/2024 02:53
Clear
Clear
 Wind from NW
Wind: NW 6 km/h
Temperature: 19°C
Dew Point: 14°C
Humidity: 73%
Barometer: 1013.2 hPa
Clouds: Clear
Visibility: 16 km
2024/07/20 09:53 KSJC 200953Z AUTO 31003KT 10SM CLR 19/14 A2992 RMK AO2 RAB0858E19B42E52 SLP132 P0000 T01940139
KNUQ - Moffett Nas/Mtn, California, USA
Distance from station: N 14km
Updated: 20/07/2024 03:15
Clear
Clear
 Wind from N
Wind: N 7 km/h
Temperature: 18°C
Dew Point: 14°C
Humidity: 78%
Barometer: 1013.2 hPa
Clouds: Clear
Visibility: 14 km
2024/07/20 10:15 KNUQ 201015Z AUTO 36004KT 9SM CLR 18/14 A2992 RMK AO2
 
KPAO - Palo Alto, California, USA
Distance from station: NNW 23km
Updated: 19/07/2024 20:47
NOT Current
Clear
Clear
 Wind from NW
Wind: NW 15 km/h
Temperature: 20°C
Dew Point: 14°C
Humidity: 69%
Barometer: 1013.9 hPa
Clouds: Clear
Visibility: 16 km
2024/07/20 03:47 KPAO 200347Z 32008KT 10SM SKC 20/14 A2994 RMK LAST
KRHV - San Jose/Reid, California, USA
Distance from station: ENE 19km
Updated: 19/07/2024 21:55
NOT Current
Clear
Clear
 Wind from WNW
Wind: WNW 11 km/h
Temperature: 26°C
Dew Point: 11°C
Humidity: 39%
Barometer: 1014.6 hPa
Clouds: Clear
Visibility: 16 km
2024/07/20 04:55 KRHV 200455Z 30006KT 10SM SKC 26/11 A2996 RMK LAST
 
KOAK - Oakland, California, USA
Distance from station: NNW 50km
Updated: 20/07/2024 02:53
Few Clouds
Few Clouds
 Wind from N
Wind: N 6 km/h
Temperature: 16°C
Dew Point: 14°C
Humidity: 88%
Barometer: 1013.5 hPa
Clouds: Few Clouds
Visibility: 16 km
Cloud details: Few Clouds 6096 m
2024/07/20 09:53 KOAK 200953Z 01003KT 10SM FEW200 16/14 A2993 RMK AO2 SLP135 T01610139
KSQL - San Carlos Airpo, California, USA
Distance from station: NW 34km
Updated: 20/07/2024 03:15
Clear
Clear
 Wind from NW
Wind: NW 7 km/h
Temperature: 17°C
Dew Point: 13°C
Humidity: 77%
Barometer: 1013.5 hPa
Clouds: Clear
2024/07/20 10:15 KSQL 201015Z AUTO 32004KT CLR 17/13 A2993 RMK AO2
 
KSFO - San Francisco, California, USA
Distance from station: NW 49km
Updated: 20/07/2024 02:56
Partly cloudy
Partly cloudy
 Wind from WNW
Wind: WNW 17 km/h
Temperature: 14°C
Dew Point: 12°C
Humidity: 88%
Barometer: 1013.2 hPa
Clouds: Partly cloudy
Visibility: 16 km
Cloud details: Few Clouds 213 m
Partly cloudy 6096 m
2024/07/20 09:56 KSFO 200956Z 29009KT 10SM FEW007 SCT200 14/12 A2992 RMK AO2 SLP133 T01440122 $
KE16 - San Martin, California, USA
Distance from station: ESE 43km
Updated: 20/07/2024 03:15
Partly cloudy
Partly cloudy
 Wind from S
Wind: S 6 km/h
Temperature: 17°C
Dew Point: 11°C
Humidity: 68%
Barometer: 1014.2 hPa
Clouds: Partly cloudy
Visibility: 16 km
Cloud details: Few Clouds 2134 m
Partly cloudy 3658 m
2024/07/20 10:15 KE16 201015Z AUTO 17003KT 10SM FEW070 SCT120 17/11 A2995 RMK AO2 PWINO PNO
 
KWVI - Watsonville, California, USA
Distance from station: SSE 44km
Updated: 20/07/2024 03:12
Overcast
Overcast
 Wind from E
Wind: E 6 km/h
Temperature: 14°C
Dew Point: 13°C
Humidity: 94%
Barometer: 1014.2 hPa
Clouds: Overcast
Visibility: 14 km
Cloud details: Overcast 152 m
2024/07/20 10:12 KWVI 201012Z AUTO 09003KT 9SM OVC005 14/13 A2995 RMK AO2 T01390128
KHAF - Half Moon Bay, California, USA
Distance from station: WNW 50km
Updated: 20/07/2024 03:15
Mist, Overcast
Mist, Overcast
 Wind from calm
Wind: Calm
Temperature: 14°C
Dew Point: 14°C
Humidity: 100%
Barometer: 1014.6 hPa
Summary: Mist
Clouds: Overcast
Visibility: 10 km
Cloud details: Overcast 305 m
2024/07/20 10:15 KHAF 201015Z AUTO 00000KT 6SM BR OVC010 14/14 A2996 RMK AO2
 
KHWD - Hayward, California, USA
Distance from station: N 44km
Updated: 20/07/2024 02:54
Clear
Clear
 Wind from calm
Wind: Calm
Temperature: 17°C
Dew Point: 13°C
Humidity: 77%
Barometer: 1013.2 hPa
Clouds: Clear
Visibility: 16 km
2024/07/20 09:54 KHWD 200954Z AUTO 00000KT 10SM CLR 17/13 A2992 RMK AO2 SLP142 T01720128
KLVK - Livermore, California, USA
Distance from station: NNE 51km
Updated: 20/07/2024 02:53
Clear
Clear
 Wind from W
Wind: W 9 km/h
Temperature: 19°C
Dew Point: 11°C
Humidity: 60%
Barometer: 1012.5 hPa
Clouds: Clear
Visibility: 14 km
2024/07/20 09:53 KLVK 200953Z AUTO 28005KT 9SM CLR 19/11 A2990 RMK AO2 SLP118 T01940111 $